Latest Weather Observations for Norah Head

IDN60901

Issued at 7:21 pm EDT Wednesday 25 November 2020 (issued every 10 minutes, with the page automatically refreshed every 10 minutes)

About weather observations | Map of Sydney area stations | Latest observations for Sydney area | Other Formats
Station Details ID: 061366 Name: NORAH HEAD AWS Lat: -33.28 Lon: 151.58 Height: 18.8 m
Data from the previous 72 hours. | See also: Recent months at Norah Head
Date/Time
EDT
Temp
°C
App
Temp
°C
Dew
Point
°C
Rel
Hum
%
Delta-T
°C
Wind Press
QNH
hPa
Press
MSL
hPa
Rain since
9am
mm
Dir  Spd
km/h
Gust
km/h
Spd
kts
Gust
kts
25/07:00pm 20.2 17.0 15.4 74 2.8 NE 26 28 14 15 1012.3 1012.2 0.0
25/06:30pm 21.3 19.0 15.6 70 3.4 NE 22 28 12 15 1012.2 1012.1 0.0
25/06:00pm 22.6 20.7 15.7 65 4.1 NE 20 24 11 13 1012.1 1012.0 0.0
25/05:30pm 23.5 22.1 16.5 65 4.3 ENE 19 20 10 11 1012.2 1012.1 0.0
25/05:00pm 22.9 21.7 16.0 65 4.2 ENE 17 20 9 11 1012.3 1012.2 0.0
25/04:30pm 23.0 21.7 15.8 64 4.3 ENE 17 19 9 10 1012.4 1012.3 0.0
25/04:00pm 23.1 21.8 15.7 63 4.5 ENE 17 19 9 10 1012.6 1012.5 0.0
25/03:30pm 23.3 22.2 15.4 61 4.7 ENE 15 17 8 9 1012.9 1012.8 0.0
25/03:00pm 23.4 22.4 15.5 61 4.7 E 15 19 8 10 1013.3 1013.2 0.0
25/02:30pm 23.5 22.6 15.8 62 4.7 E 15 19 8 10 1013.5 1013.4 0.0
25/02:00pm 24.0 23.0 16.5 63 4.6 ENE 17 19 9 10 1013.7 1013.6 0.0
25/01:30pm 23.7 22.7 15.7 61 4.8 E 15 17 8 9 1014.0 1013.9 0.0
25/01:00pm 24.3 23.6 16.3 61 4.9 E 15 17 8 9 1014.3 1014.2 0.0
25/12:30pm 24.4 23.6 16.1 60 5.1 ENE 15 17 8 9 1014.5 1014.4 0.0
25/12:00pm 24.8 24.4 16.2 58 5.3 ENE 13 17 7 9 1014.8 1014.7 0.0
25/11:30am 25.8 26.0 17.7 61 5.1 NE 13 15 7 8 1015.1 1015.0 0.0
25/11:00am 24.9 25.2 16.1 58 5.4 ENE 9 13 5 7 1015.2 1015.1 0.0
25/10:30am 24.4 24.7 16.1 60 5.1 NNE 9 11 5 6 1015.4 1015.3 0.0
25/10:00am 25.2 26.6 17.7 63 4.7 NE 7 9 4 5 1015.5 1015.4 0.0
25/09:30am 24.8 25.9 17.0 62 4.8 ENE 7 9 4 5 1015.4 1015.3 0.0
25/09:00am 23.6 24.6 16.4 64 4.4 ENE 6 7 3 4 1015.4 1015.3 0.0
25/08:30am 22.9 24.1 16.0 65 4.2 ENE 4 6 2 3 1015.3 1015.2 0.0
25/08:00am 21.9 23.0 15.5 67 3.8 E 4 6 2 3 1015.2 1015.1 0.0
25/07:30am 21.4 22.5 15.7 70 3.4 ESE 4 6 2 3 1014.7 1014.6 0.0
25/07:00am 21.4 22.7 17.0 76 2.7 E 6 7 3 4 1014.3 1014.2 0.0
25/06:30am 19.7 21.2 17.5 87 1.3 E 6 7 3 4 1014.1 1014.0 0.0
25/06:00am 17.9 19.2 16.1 89 1.1 ENE 4 6 2 3 1013.8 1013.7 0.0
25/05:30am 17.3 17.3 15.1 87 1.3 NE 9 13 5 7 1013.4 1013.3 0.0
25/05:00am 18.5 17.8 16.3 87 1.3 ENE 15 19 8 10 1013.2 1013.1 0.0
25/04:30am 18.4 18.0 16.2 87 1.3 SE 13 15 7 8 1013.1 1013.0 0.0
25/04:00am 18.4 18.7 16.0 86 1.4 SSE 9 11 5 6 1013.1 1013.0 0.0
25/03:30am 18.4 17.9 16.0 86 1.4 SSE 13 15 7 8 1013.0 1012.9 0.0
25/03:00am 18.4 17.9 16.0 86 1.4 SSE 13 15 7 8 1013.1 1013.0 0.0
25/02:30am 18.7 18.3 16.3 86 1.4 SSE 13 15 7 8 1013.2 1013.1 0.0
25/02:00am 18.7 18.4 16.5 87 1.3 SSE 13 15 7 8 1013.4 1013.3 0.0
25/01:30am 18.5 19.0 16.5 88 1.2 SSE 9 11 5 6 1013.5 1013.4 0.0
25/01:00am 18.4 18.5 16.6 89 1.1 SSE 11 13 6 7 1013.7 1013.6 0.0
25/12:30am 18.8 19.5 17.1 90 1.0 S 9 13 5 7 1014.1 1014.0 0.0
25/12:00am 18.6 18.9 16.9 90 1.0 S 11 15 6 8 1014.4 1014.3 0.0
 
Date/Time
EDT
Temp
°C
App
Temp
°C
Dew
Point
°C
Rel
Hum
%
Delta-T
°C
Wind Press
QNH
hPa
Press
MSL
hPa
Rain since
9am
mm
Dir  Spd
km/h
Gust
km/h
Spd
kts
Gust
kts
24/11:30pm 18.6 18.7 16.6 88 1.2 S 11 13 6 7 1014.4 1014.3 0.0
24/11:00pm 18.8 18.6 16.6 87 1.3 S 13 15 7 8 1014.3 1014.2 0.0
24/10:30pm 18.9 18.2 16.5 86 1.4 S 15 19 8 10 1014.2 1014.1 0.0
24/10:00pm 18.9 18.2 16.5 86 1.4 S 15 19 8 10 1014.1 1014.0 0.0
24/09:30pm 18.8 17.7 16.4 86 1.4 S 17 20 9 11 1013.9 1013.8 0.0
24/09:00pm 18.9 18.2 16.5 86 1.4 S 15 19 8 10 1013.6 1013.5 0.0
24/08:30pm 18.8 17.3 16.4 86 1.4 SSE 19 24 10 13 1013.2 1013.1 0.0
24/08:00pm 18.9 16.9 16.5 86 1.4 S 22 26 12 14 1012.6 1012.5 0.0
24/07:30pm 18.9 16.8 16.1 84 1.7 SSE 22 26 12 14 1012.1 1012.0 0.0
24/07:00pm 19.3 16.4 16.2 82 1.9 SSE 26 30 14 16 1011.7 1011.6 0.0
24/06:30pm 19.5 16.3 16.2 81 2.0 SSE 28 32 15 17 1011.1 1011.0 0.0
24/06:00pm 19.6 16.6 15.9 79 2.2 S 26 32 14 17 1010.9 1010.8 0.0
24/05:30pm 20.5 17.6 16.1 76 2.6 S 26 32 14 17 1010.8 1010.7 0.0
24/05:00pm 20.7 17.4 16.1 75 2.8 S 28 32 15 17 1010.6 1010.5 0.0
24/04:30pm 20.8 17.6 16.2 75 2.8 S 28 33 15 18 1010.9 1010.8 0.0
24/04:00pm 20.9 17.5 15.9 73 3.0 S 28 33 15 18 1011.2 1011.1 0.0
24/03:30pm 21.1 17.4 15.9 72 3.1 S 30 33 16 18 1011.0 1010.9 0.0
24/03:00pm 21.3 17.2 16.0 72 3.2 S 32 39 17 21 1011.0 1010.9 0.0
24/02:30pm 21.4 17.4 16.1 72 3.2 S 32 39 17 21 1011.4 1011.3 0.0
24/02:00pm 21.0 16.5 15.3 70 3.4 S 33 41 18 22 1011.4 1011.3 0.0
24/01:30pm 21.3 17.8 15.6 70 3.4 S 28 35 15 19 1011.6 1011.5 0.0
24/01:00pm 21.7 19.2 16.2 71 3.3 S 24 30 13 16 1011.4 1011.3 0.0
24/12:30pm 21.6 18.3 16.1 71 3.3 S 28 35 15 19 1011.5 1011.4 0.0
24/12:00pm 20.7 17.0 15.0 70 3.4 S 28 33 15 18 1011.8 1011.7 0.0
24/11:30am 21.0 16.7 15.3 70 3.4 S 32 43 17 23 1012.2 1012.1 0.0
24/11:00am 21.0 16.4 15.1 69 3.5 S 33 43 18 23 1012.2 1012.1 0.0
24/10:30am 20.8 15.8 15.1 70 3.4 S 35 43 19 23 1012.1 1012.0 0.0
24/10:00am 21.0 16.9 16.0 73 3.0 SSW 32 43 17 23 1012.0 1011.9 0.0
24/09:30am 20.7 16.5 15.7 73 3.0 S 32 39 17 21 1011.6 1011.5 0.0
24/09:00am 20.0 16.1 15.4 75 2.7 S 30 39 16 21 1011.5 1011.4 0.0
24/08:30am 20.5 16.7 15.7 74 2.9 S 30 37 16 20 1011.3 1011.2 0.0
24/08:00am 19.9 15.7 15.7 77 2.5 S 32 41 17 22 1010.8 1010.7 0.0
24/07:30am 20.0 15.8 15.8 77 2.5 S 32 41 17 22 1010.6 1010.5 0.0
24/07:00am 19.6 15.4 16.3 81 2.0 S 33 44 18 24 1010.3 1010.2 0.0
24/06:30am 19.2 14.7 16.4 84 1.7 S 35 44 19 24 1009.8 1009.7 0.0
24/06:00am 18.8 15.5 17.1 90 1.0 S 30 39 16 21 1009.4 1009.3 0.0
24/05:30am 18.8 16.8 17.3 91 0.9 SSW 24 35 13 19 1008.9 1008.9 0.0
24/05:00am 18.7 17.0 17.2 91 0.9 SSW 22 30 12 16 1008.5 1008.5 0.0
24/04:30am 18.6 17.2 17.1 91 0.9 SSW 20 30 11 16 1008.2 1008.2 0.0
24/04:00am 18.8 17.2 17.5 92 0.8 SSW 22 32 12 17 1008.4 1008.4 0.0
24/03:30am 18.8 17.6 17.6 93 0.7 SSW 20 28 11 15 1008.6 1008.6 0.0
24/03:00am 18.9 17.0 17.7 93 0.7 SSW 24 30 13 16 1008.8 1008.8 0.0
24/02:30am 19.1 18.1 17.9 93 0.7 SSW 20 26 11 14 1008.7 1008.7 0.0
24/02:00am 19.1 18.3 17.9 93 0.7 SSW 19 24 10 13 1008.7 1008.7 0.0
24/01:30am 19.2 18.3 17.7 91 0.9 SSW 19 24 10 13 1008.5 1008.5 0.0
24/01:00am 19.2 18.0 17.5 90 1.0 SSW 20 28 11 15 1008.5 1008.5 0.0
24/12:30am 19.3 18.3 17.6 90 1.0 SSW 19 26 10 14 1008.7 1008.7 0.0
24/12:00am 19.5 17.7 17.8 90 1.0 SSW 24 32 13 17 1008.4 1008.4 0.0
 
Date/Time
EDT
Temp
°C
App
Temp
°C
Dew
Point
°C
Rel
Hum
%
Delta-T
°C
Wind Press
QNH
hPa
Press
MSL
hPa
Rain since
9am
mm
Dir  Spd
km/h
Gust
km/h
Spd
kts
Gust
kts
23/11:30pm 19.6 16.7 17.9 90 1.0 SSW 30 37 16 20 1008.3 1008.3 0.0
23/11:00pm 19.8 17.2 17.8 88 1.2 SSW 28 37 15 20 1008.2 1008.2 0.0
23/10:30pm 19.9 17.9 17.5 86 1.5 SSW 24 32 13 17 1008.1 1008.1 0.0
23/10:00pm 20.0 18.3 17.2 84 1.7 SSW 22 32 12 17 1007.9 1007.9 0.0
23/09:30pm 20.3 17.9 16.3 78 2.4 SSW 24 28 13 15 1007.4 1007.4 0.0
23/09:00pm 21.6 18.6 15.9 70 3.4 SSW 26 52 14 28 1006.1 1006.1 0.0
23/08:58pm 22.3 20.4 16.6 70 3.5 SW 22 52 12 28 1006.1 1006.1 0.0
23/08:30pm 23.5 23.8 16.1 63 4.5 NW 9 17 5 9 1004.6 1004.6 0.0
23/08:00pm 23.6 25.0 16.4 64 4.4 W 4 11 2 6 1004.4 1004.4 0.0
23/07:30pm 24.1 25.0 16.1 61 4.9 WNW 6 11 3 6 1005.6 1005.6 0.0
23/07:00pm 24.4 25.2 15.9 59 5.2 W 6 13 3 7 1005.4 1005.4 0.0
23/06:30pm 24.9 25.0 15.5 56 5.7 WNW 9 19 5 10 1005.5 1005.5 0.0
23/06:00pm 24.9 25.0 15.5 56 5.7 WNW 9 19 5 10 1005.2 1005.2 0.0
23/05:30pm 25.5 25.2 15.5 54 6.1 WNW 11 20 6 11 1005.0 1005.0 0.0
23/05:00pm 24.9 24.1 15.0 54 6.0 NW 13 26 7 14 1004.2 1004.2 0.0
23/04:30pm 24.1 24.7 15.9 60 5.0 NW 7 15 4 8 1004.9 1004.9 0.0
23/04:00pm 24.1 24.4 16.1 61 4.9 WNW 9 20 5 11 1004.6 1004.6 0.0
23/03:30pm 24.1 23.9 16.6 63 4.6 NW 13 30 7 16 1004.8 1004.8 0.0
23/03:00pm 24.9 25.2 16.9 61 5.0 WNW 11 22 6 12 1005.5 1005.5 0.0
23/02:30pm 25.3 25.6 18.0 64 4.6 W 13 24 7 13 1006.8 1006.8 0.0
23/02:00pm 24.9 25.7 19.1 70 3.7 W 13 28 7 15 1007.2 1007.2 0.0
23/01:30pm 24.4 26.6 19.7 75 3.0 SW 7 13 4 7 1007.3 1007.3 0.0
23/01:00pm 24.4 28.1 22.5 89 1.3 W 7 17 4 9 1007.5 1007.5 0.0
23/12:30pm 21.5 22.4 20.1 92 0.9 NNE 15 20 8 11 1007.0 1007.0 0.0
23/12:00pm 22.3 23.5 20.6 90 1.1 NNE 15 22 8 12 1006.9 1006.9 0.0
23/11:30am 21.8 21.3 19.9 89 1.2 NNE 22 24 12 13 1007.5 1007.5 0.0
23/11:00am 23.4 23.1 21.1 87 1.5 NNE 24 28 13 15 1007.6 1007.6 0.0
23/10:30am 21.6 21.1 20.8 95 0.5 N 24 28 13 15 1007.8 1007.8 0.0
23/10:00am 20.6 20.4 19.4 93 0.8 NNE 19 22 10 12 1008.1 1008.1 0.0
23/09:30am 21.1 22.0 19.2 89 1.2 NNE 13 17 7 9 1008.6 1008.6 0.0
23/09:00am 22.6 25.2 20.5 88 1.4 NE 7 9 4 5 1009.4 1009.3 6.8
23/08:30am 21.9 25.6 20.0 89 1.2 CALM 0 0 0 0 1009.5 1009.4 6.8
23/08:00am 21.8 24.5 19.5 87 1.5 WSW 4 7 2 4 1009.9 1009.8 6.8
23/07:30am 21.9 24.4 20.2 90 1.1 SW 7 13 4 7 1009.6 1009.5 6.8
23/07:00am 21.1 22.8 19.4 90 1.1 SSW 9 13 5 7 1009.9 1009.8 6.8
23/06:30am 21.3 21.6 18.7 85 1.6 S 15 20 8 11 1009.4 1009.3 6.8
23/06:00am 22.6 23.6 18.6 78 2.5 SW 11 15 6 8 1009.7 1009.6 6.8
23/05:30am 23.3 24.1 18.2 73 3.2 SW 11 17 6 9 1009.1 1009.1 6.8
23/05:00am 23.3 24.2 18.4 74 3.1 W 11 22 6 12 1009.4 1009.3 6.8
23/04:30am 22.8 23.2 19.0 79 2.4 W 15 24 8 13 1008.6 1008.6 6.8
23/04:00am 20.9 23.2 18.5 86 1.5 NW 4 7 2 4 1007.9 1007.9 6.4
23/03:30am 21.8 23.9 18.2 80 2.2 NW 4 9 2 5 1007.7 1007.7 6.4
23/03:00am 22.5 24.7 19.1 81 2.2 NW 6 7 3 4 1007.9 1007.9 6.4
23/02:30am 22.2 24.9 20.3 89 1.2 NW 6 9 3 5 1008.4 1008.4 6.4
23/02:00am 20.9 24.0 19.6 92 0.8 WNW 2 7 1 4 1008.9 1008.9 6.4
23/01:30am 21.0 23.7 19.5 91 1.0 NW 4 9 2 5 1009.1 1009.1 6.4
23/01:00am 20.5 22.9 18.8 90 1.1 NW 4 6 2 3 1009.9 1009.8 6.4
23/12:30am 21.2 23.4 19.3 89 1.2 NW 6 7 3 4 1010.4 1010.3 6.4
23/12:00am 21.4 22.4 19.5 89 1.2 NNW 13 15 7 8 1010.9 1010.8 6.4
 
Date/Time
EDT
Temp
°C
App
Temp
°C
Dew
Point
°C
Rel
Hum
%
Delta-T
°C
Wind Press
QNH
hPa
Press
MSL
hPa
Rain since
9am
mm
Dir  Spd
km/h
Gust
km/h
Spd
kts
Gust
kts
22/11:30pm 21.7 22.8 20.5 93 0.8 NNW 15 17 8 9 1011.3 1011.2 6.4
22/11:00pm 21.2 22.8 20.7 97 0.3 N 13 19 7 10 1011.9 1011.8 6.4
22/10:30pm 20.6 22.0 20.4 99 0.1 NNW 13 17 7 9 1012.2 1012.1 6.4
22/10:00pm 21.0 22.3 20.8 99 0.1 N 15 17 8 9 1012.2 1012.1 6.4
22/09:30pm 20.7 22.3 20.7 100 0.0 NNW 13 19 7 10 1012.3 1012.2 6.4
22/09:00pm 20.8 22.8 20.8 100 0.0 N 11 11 6 6 1012.2 1012.1 6.4
22/08:30pm 21.2 21.8 21.0 99 0.1 N 19 20 10 11 1012.2 1012.1 6.4
22/08:00pm 21.0 22.0 21.0 100 0.0 NNW 17 19 9 10 1012.4 1012.3 6.4
22/07:30pm 20.7 21.1 20.7 100 0.0 N 19 20 10 11 1012.6 1012.5 6.4

Latest Capital City Observations: Canberra | Sydney | Melbourne | Brisbane | Adelaide | Perth | Hobart | Darwin

Other formats

Comma delimited format used in spreadsheet applications
http://www.bom.gov.au/fwo/IDN60901/IDN60901.95770.axf

JavaScript Object Notation format (JSON) in row-major order
http://www.bom.gov.au/fwo/IDN60901/IDN60901.95770.json

Data quality

Most of these data are generated automatically and are frequently updated. Quality checks on data are not normally performed. It is possible for incorrect values to appear. Refer to information at About Latest Weather Observations and please check the disclaimer before using these data.